Latest Weather Observations for St Helens

IDT60801

Issued at 6:51 am EDT Sunday 26 January 2020 (issued every 10 minutes, with the page automatically refreshed every 10 minutes)

About weather observations | Map of weather stations | Latest weather observations for TAS | Other Formats
Station Details ID: 092120 Name: ST HELENS AERODROME Lat: -41.34 Lon: 148.28 Height: 48.0 m
Data from the previous 72 hours. | See also: Recent months at St Helens
Date/Time
EDT
Temp
°C
App
Temp
°C
Dew
Point
°C
Rel
Hum
%
Delta-T
°C
Wind Press
QNH
hPa
Press
MSL
hPa
Rain since
9am
mm
Dir  Spd
km/h
Gust
km/h
Spd
kts
Gust
kts
26/06:30am 17.6 16.2 14.5 82 1.8 NNW 15 24 8 13 1009.2 1009.0 0.0
26/06:00am 17.8 16.8 14.5 81 1.9 NNW 13 22 7 12 1009.1 1008.8 0.0
26/05:30am 17.3 15.7 15.1 87 1.3 N 17 24 9 13 1008.9 1008.7 0.0
26/05:00am 17.2 15.6 15.0 87 1.3 N 17 30 9 16 1008.8 1008.6 0.0
26/04:30am 17.8 15.8 14.9 83 1.7 NNW 19 26 10 14 1008.9 1008.7 0.0
26/04:00am 17.9 15.7 14.8 82 1.8 NNW 20 28 11 15 1009.0 1008.8 0.0
26/03:30am 18.3 16.5 14.4 78 2.3 NNW 17 28 9 15 1009.1 1008.9 0.0
26/03:00am 18.1 16.0 14.6 80 2.0 WNW 19 32 10 17 1009.3 1009.1 0.0
26/02:30am 17.9 16.1 14.4 80 2.0 NNW 17 24 9 13 1009.7 1009.5 0.0
26/02:00am 18.0 17.0 14.5 80 2.0 NW 13 26 7 14 1009.9 1009.7 0.0
26/01:30am 18.2 16.7 14.3 78 2.2 WNW 15 30 8 16 1010.2 1010.1 0.0
26/01:00am 17.9 16.1 14.4 80 2.0 WNW 17 30 9 16 1010.4 1010.3 0.0
26/12:30am 18.0 16.5 14.3 79 2.1 WNW 15 28 8 15 1010.5 1010.4 0.0
26/12:00am 18.0 15.7 14.1 78 2.2 WNW 19 32 10 17 1010.6 1010.5 0.0
 
Date/Time
EDT
Temp
°C
App
Temp
°C
Dew
Point
°C
Rel
Hum
%
Delta-T
°C
Wind Press
QNH
hPa
Press
MSL
hPa
Rain since
9am
mm
Dir  Spd
km/h
Gust
km/h
Spd
kts
Gust
kts
25/11:30pm 18.0 16.5 14.3 79 2.1 NW 15 28 8 15 1011.1 1011.0 0.0
25/11:00pm 17.6 16.1 14.1 80 2.0 NW 15 26 8 14 1011.2 1011.1 0.0
25/10:30pm 17.2 16.8 14.1 82 1.8 NNW 9 15 5 8 1011.5 1011.4 0.0
25/10:00pm 17.3 16.4 13.8 80 2.0 N 11 15 6 8 1011.4 1011.3 0.0
25/09:30pm 17.7 16.5 14.0 79 2.1 N 13 17 7 9 1011.1 1011.0 0.0
25/09:00pm 17.8 17.0 13.9 78 2.2 NW 11 19 6 10 1010.7 1010.5 0.0
25/08:30pm 18.1 17.7 14.0 77 2.3 NW 9 15 5 8 1010.7 1010.6 0.0
25/08:00pm 18.5 17.3 14.0 75 2.6 NNW 13 20 7 11 1010.5 1010.4 0.0
25/07:30pm 18.9 18.0 13.7 72 3.0 NW 11 19 6 10 1010.5 1010.4 0.0
25/07:00pm 19.4 16.8 13.3 68 3.5 WNW 19 32 10 17 1010.3 1010.2 0.0
25/06:30pm 20.2 17.5 13.6 66 3.8 WNW 20 32 11 17 1010.1 1010.0 0.0
25/06:00pm 20.9 18.9 13.8 64 4.1 W 17 32 9 17 1009.8 1009.6 0.0
25/05:30pm 21.1 18.1 13.8 63 4.2 W 22 43 12 23 1009.8 1009.6 0.0
25/05:00pm 21.6 18.7 13.0 58 4.9 WNW 20 32 11 17 1010.0 1009.8 0.0
25/04:30pm 23.5 21.1 12.5 50 6.3 WSW 17 28 9 15 1009.7 1009.5 0.0
25/04:00pm 22.6 19.2 12.5 53 5.8 W 22 43 12 23 1009.7 1009.5 0.0
25/03:30pm 22.8 19.4 12.4 52 5.9 W 22 41 12 22 1009.7 1009.5 0.0
25/03:00pm 23.5 20.7 12.5 50 6.3 W 19 39 10 21 1009.8 1009.6 0.0
25/02:30pm 22.7 19.3 12.6 53 5.8 WNW 22 39 12 21 1009.9 1009.7 0.0
25/02:00pm 23.6 20.5 12.3 49 6.5 WNW 20 37 11 20 1009.8 1009.6 0.0
25/01:30pm 24.0 20.8 11.3 45 7.1 WNW 19 39 10 21 1009.8 1009.6 0.0
25/01:00pm 23.0 20.2 11.4 48 6.5 W 17 26 9 14 1010.1 1010.0 0.0
25/12:30pm 22.4 18.1 10.9 48 6.4 W 24 37 13 20 1010.2 1010.1 0.0
25/12:00pm 22.2 18.4 11.3 50 6.1 W 22 48 12 26 1009.8 1009.7 0.0
25/11:30am 21.2 16.5 10.7 51 5.8 W 26 50 14 27 1009.8 1009.6 0.0
25/11:00am 20.7 16.4 10.8 53 5.4 WNW 24 44 13 24 1009.7 1009.5 0.0
25/10:41am 20.7 15.6 10.5 52 5.6 W 28 52 15 28 1009.9 1009.7 0.0
25/10:30am 20.3 16.1 11.0 55 5.1 W 24 46 13 25 1010.1 1010.0 0.0
25/10:20am 20.3 15.3 11.0 55 5.1 WNW 28 54 15 29 1010.2 1010.1 0.0
25/10:00am 20.1 15.9 11.1 56 4.9 WNW 24 50 13 27 1010.1 1010.0 0.0
25/09:30am 19.7 16.1 12.0 61 4.3 WNW 22 43 12 23 1010.4 1010.3 0.0
25/09:00am 19.3 16.0 11.6 61 4.3 WNW 20 43 11 23 1010.4 1010.3 0.0
25/08:30am 18.2 14.4 11.3 64 3.8 W 22 48 12 26 1010.3 1010.2 0.0
25/08:00am 18.1 13.6 11.4 65 3.7 W 26 46 14 25 1009.4 1009.2 0.0
25/07:39am 17.7 12.7 11.0 65 3.6 W 28 56 15 30 1008.8 1008.6 0.0
25/07:30am 17.7 13.9 11.3 66 3.5 W 22 43 12 23 1008.7 1008.5 0.0
25/07:00am 17.0 13.7 11.7 71 2.9 W 20 43 11 23 1009.1 1008.9 0.0
25/06:30am 16.9 13.9 11.8 72 2.8 W 19 32 10 17 1009.3 1009.1 0.0
25/06:00am 16.5 13.7 11.4 72 2.8 WNW 17 26 9 14 1009.4 1009.2 0.0
25/05:30am 16.5 13.3 11.2 71 2.9 WNW 19 32 10 17 1009.3 1009.1 0.0
25/05:00am 16.8 13.2 11.7 72 2.8 WNW 22 39 12 21 1009.1 1008.9 0.0
25/04:30am 16.5 14.1 12.5 77 2.2 NW 17 30 9 16 1008.9 1008.7 0.0
25/04:00am 16.8 15.0 12.1 74 2.6 WNW 13 24 7 13 1009.0 1008.8 0.0
25/03:30am 16.8 13.2 11.7 72 2.8 WNW 22 39 12 21 1009.2 1009.0 0.0
25/03:00am 16.8 14.2 12.1 74 2.6 WNW 17 30 9 16 1009.2 1009.0 0.0
25/02:30am 16.9 13.7 12.0 73 2.7 WNW 20 35 11 19 1009.2 1009.0 0.0
25/02:00am 17.2 15.0 12.1 72 2.8 WNW 15 28 8 15 1009.1 1008.9 0.0
25/01:30am 17.2 14.2 12.1 72 2.8 WNW 19 28 10 15 1009.0 1008.8 0.0
25/01:00am 17.3 14.3 12.6 74 2.6 WNW 20 30 11 16 1009.1 1008.9 0.0
25/12:30am 17.2 15.1 12.3 73 2.7 NW 15 28 8 15 1009.2 1009.0 0.0
25/12:00am 17.2 14.8 12.7 75 2.5 NNW 17 30 9 16 1009.2 1009.0 0.0
 
Date/Time
EDT
Temp
°C
App
Temp
°C
Dew
Point
°C
Rel
Hum
%
Delta-T
°C
Wind Press
QNH
hPa
Press
MSL
hPa
Rain since
9am
mm
Dir  Spd
km/h
Gust
km/h
Spd
kts
Gust
kts
24/11:30pm 17.2 15.6 12.7 75 2.5 NNW 13 20 7 11 1009.3 1009.1 0.0
24/11:00pm 17.3 15.5 12.0 71 2.9 NNW 13 19 7 10 1009.5 1009.3 0.0
24/10:30pm 17.6 14.6 11.9 69 3.1 NW 19 30 10 16 1009.3 1009.1 0.0
24/10:00pm 17.5 15.5 11.5 68 3.3 NNW 13 20 7 11 1008.8 1008.6 0.0
24/09:30pm 17.6 14.6 11.9 69 3.1 WNW 19 32 10 17 1008.9 1008.7 0.0
24/09:00pm 17.4 14.3 11.7 69 3.1 WNW 19 26 10 14 1008.5 1008.2 0.0
24/08:30pm 17.8 14.6 11.4 66 3.5 WNW 19 32 10 17 1008.2 1008.0 0.0
24/08:00pm 18.0 14.6 11.3 65 3.6 NW 20 35 11 19 1007.8 1007.6 0.0
24/07:30pm 18.4 15.5 11.0 62 4.0 NW 17 28 9 15 1007.1 1007.0 0.0
24/07:00pm 18.7 15.7 10.5 59 4.4 NW 17 28 9 15 1006.9 1006.8 0.0
24/06:30pm 19.3 15.9 11.3 60 4.4 WNW 20 35 11 19 1006.4 1006.3 0.0
24/06:00pm 18.9 15.3 10.7 59 4.5 WNW 20 33 11 18 1006.1 1006.0 0.0
24/05:30pm 19.7 15.8 10.7 56 4.9 WNW 22 37 12 20 1005.8 1005.7 0.0
24/05:00pm 19.8 16.1 10.2 54 5.2 WNW 20 39 11 21 1005.6 1005.5 0.0
24/04:30pm 19.8 15.9 8.8 49 5.8 WNW 19 35 10 19 1005.6 1005.5 0.0
24/04:00pm 21.1 17.4 10.0 49 6.0 WNW 20 39 11 21 1005.1 1005.0 0.0
24/03:30pm 20.0 15.8 9.9 52 5.4 NW 22 39 12 21 1004.9 1004.8 0.0
24/03:00pm 20.5 17.7 10.0 51 5.7 WNW 15 28 8 15 1004.7 1004.6 0.0
24/02:30pm 19.4 15.1 9.3 52 5.3 WNW 22 35 12 19 1004.6 1004.5 0.0
24/02:00pm 19.4 16.1 9.6 53 5.2 WNW 17 32 9 17 1004.3 1004.2 0.0
24/01:30pm 19.4 15.2 9.6 53 5.2 WNW 22 35 12 19 1004.2 1004.1 0.0
24/01:00pm 19.3 15.3 8.9 51 5.5 WNW 20 32 11 17 1003.8 1003.7 0.0
24/12:33pm 19.6 13.9 8.3 48 5.9 WNW 28 50 15 27 1003.6 1003.5 0.0
24/12:30pm 19.8 14.6 8.8 49 5.8 WNW 26 50 14 27 1003.6 1003.5 0.0
24/12:00pm 19.4 14.7 9.3 52 5.4 W 24 44 13 24 1003.3 1003.2 0.0
24/11:30am 19.0 14.7 9.5 54 5.0 WNW 22 44 12 24 1003.3 1003.2 0.0
24/11:00am 17.9 13.6 9.5 58 4.4 W 22 41 12 22 1003.1 1003.0 0.0
24/10:30am 17.9 13.9 9.0 56 4.6 W 20 43 11 23 1002.7 1002.6 0.0
24/10:00am 17.6 12.0 8.7 56 4.6 W 28 50 15 27 1002.0 1001.9 0.0
24/09:39am 17.3 11.7 8.7 57 4.4 W 28 46 15 25 1001.9 1001.8 0.0
24/09:30am 17.4 12.7 9.1 58 4.3 W 24 44 13 24 1001.9 1001.8 0.0
24/09:00am 16.3 12.5 9.7 65 3.5 W 20 39 11 21 1001.9 1001.8 4.4
24/08:30am 15.5 11.2 9.2 66 3.2 WNW 22 39 12 21 1001.8 1001.7 4.4
24/08:00am 15.3 10.9 9.0 66 3.2 W 22 39 12 21 1001.5 1001.4 4.4
24/07:30am 14.6 9.3 8.3 66 3.2 WNW 26 43 14 23 1001.3 1001.2 4.4
24/07:00am 14.4 8.8 8.8 69 2.8 WNW 28 46 15 25 1001.0 1000.9 4.4
24/06:53am 14.3 8.7 8.7 69 2.8 WNW 28 46 15 25 1000.9 1000.8 4.4
24/06:30am 14.2 9.8 8.8 70 2.7 W 22 41 12 22 1000.6 1000.5 4.4
24/06:00am 14.0 10.0 9.0 72 2.6 W 20 35 11 19 1000.2 1000.1 4.4
24/05:30am 13.8 9.3 8.4 70 2.7 W 22 41 12 22 1000.0 999.9 4.4
24/05:00am 13.4 9.0 7.6 68 2.9 W 20 35 11 19 999.8 999.7 4.4
24/04:30am 13.6 7.7 7.4 66 3.0 WNW 28 52 15 28 999.7 999.6 4.4
24/04:28am 13.7 7.8 7.5 66 3.0 WNW 28 52 15 28 999.7 999.6 4.4
24/04:00am 13.5 8.3 7.1 65 3.1 WNW 24 46 13 25 999.4 999.3 4.4
24/03:41am 13.5 7.4 6.4 62 3.4 WNW 28 48 15 26 999.4 999.3 4.4
24/03:30am 13.3 7.6 6.9 65 3.1 WNW 26 35 14 19 999.7 999.6 4.4
24/03:00am 13.3 9.3 5.0 57 3.9 WNW 15 28 8 15 1000.1 1000.0 4.4
24/02:30am 13.1 10.3 5.3 59 3.6 W 9 20 5 11 1000.2 1000.1 4.4
24/02:00am 13.2 9.2 4.9 57 3.8 W 15 30 8 16 1000.1 1000.0 4.4
24/01:30am 13.4 8.8 5.6 59 3.7 W 19 39 10 21 999.6 999.5 4.4
24/01:00am 13.4 8.9 6.3 62 3.4 W 19 37 10 20 999.3 999.2 4.4
24/12:30am 13.6 9.0 6.5 62 3.4 W 20 33 11 18 999.2 999.1 4.4
24/12:00am 13.9 9.1 7.2 64 3.3 W 22 43 12 23 998.9 998.8 4.4
 
Date/Time
EDT
Temp
°C
App
Temp
°C
Dew
Point
°C
Rel
Hum
%
Delta-T
°C
Wind Press
QNH
hPa
Press
MSL
hPa
Rain since
9am
mm
Dir  Spd
km/h
Gust
km/h
Spd
kts
Gust
kts
23/11:30pm 14.0 9.8 7.5 65 3.2 W 19 32 10 17 998.8 998.7 4.4
23/11:00pm 14.1 9.0 7.6 65 3.2 W 24 41 13 22 998.4 998.3 4.4
23/10:30pm 14.6 9.7 8.3 66 3.2 W 24 37 13 20 998.0 997.9 4.4
23/10:00pm 14.9 9.9 7.9 63 3.5 W 24 50 13 27 997.5 997.4 4.4
23/09:30pm 14.9 9.0 7.7 62 3.6 W 28 50 15 27 996.8 996.7 4.4
23/09:00pm 15.0 9.3 8.3 64 3.4 WNW 28 48 15 26 996.3 996.1 4.4
23/08:30pm 15.2 9.7 9.1 67 3.1 NW 28 46 15 25 995.6 995.5 4.4
23/08:00pm 15.8 10.1 8.3 61 3.8 WNW 28 46 15 25 995.2 995.1 4.4
23/07:33pm 15.9 10.6 9.8 67 3.2 NW 28 46 15 25 994.6 994.5 4.4
23/07:30pm 16.0 11.4 9.7 66 3.3 NW 24 37 13 20 994.6 994.5 4.4
23/07:00pm 16.5 11.7 9.0 61 3.9 WNW 24 46 13 25 994.1 994.0 4.4
23/06:30pm 16.1 10.2 9.1 63 3.6 WNW 30 61 16 33 993.6 993.5 4.4
23/06:00pm 15.1 9.1 10.1 72 2.6 NW 32 65 17 35 993.5 993.2 4.2
23/05:58pm 15.5 10.7 11.5 77 2.2 NW 28 57 15 31 993.6 993.5 4.2
23/05:30pm 17.1 14.2 12.8 76 2.4 NW 20 41 11 22 992.6 992.5 4.0
23/05:05pm 15.9 11.5 12.8 82 1.7 NW 28 46 15 25 992.7 992.6 4.0
23/05:00pm 16.2 12.4 12.4 78 2.1 NW 24 37 13 20 992.8 992.7 4.0
23/04:30pm 17.1 12.6 12.6 75 2.5 NW 28 48 15 26 992.7 992.6 3.6
23/04:18pm 17.9 12.9 10.8 63 3.8 NW 28 54 15 29 992.7 992.6 3.6
23/04:00pm 19.5 16.0 12.3 63 4.0 WNW 22 41 12 22 992.6 992.5 3.6
23/03:30pm 18.8 13.5 11.1 61 4.2 NW 30 52 16 28 992.4 992.2 3.6
23/03:00pm 18.6 13.6 12.1 66 3.6 NW 30 52 16 28 992.4 992.2 3.6
23/02:55pm 18.6 13.9 11.9 65 3.7 NW 28 52 15 28 992.5 992.3 3.6
23/02:30pm 17.8 13.4 11.6 67 3.4 NW 26 43 14 23 992.7 992.6 3.6
23/02:00pm 17.8 13.7 11.4 66 3.5 NW 24 43 13 23 992.9 992.8 3.6
23/01:30pm 18.0 14.9 11.6 66 3.5 WNW 19 33 10 18 992.9 992.8 3.6
23/01:00pm 16.6 12.5 11.3 71 2.9 WNW 24 44 13 24 993.0 992.9 3.6
23/12:30pm 15.3 12.3 12.6 84 1.5 NW 20 35 11 19 993.5 993.4 3.6
23/12:00pm 14.6 11.6 12.5 87 1.2 NNW 20 30 11 16 993.4 993.2 3.6
23/11:30am 13.3 10.3 11.9 91 0.8 N 19 28 10 15 994.0 993.9 3.6
23/11:00am 13.5 11.7 12.2 92 0.7 N 13 22 7 12 993.5 993.4 3.4
23/10:30am 13.7 11.7 11.6 87 1.1 NNW 13 20 7 11 993.6 993.5 2.0
23/10:00am 14.1 11.3 11.4 84 1.4 NW 17 24 9 13 993.6 993.5 1.2
23/09:30am 15.0 13.2 12.1 83 1.6 NNW 13 20 7 11 994.0 993.9 0.4
23/09:00am 15.2 12.4 11.4 78 2.1 NW 17 32 9 17 993.7 993.5 7.2
23/08:30am 14.9 10.8 11.3 79 1.9 N 24 43 13 23 994.2 994.1 6.8
23/08:00am 14.6 10.3 11.9 84 1.5 WSW 26 54 14 29 992.6 992.5 6.6
23/07:30am 14.3 9.7 12.3 88 1.1 WSW 28 61 15 33 991.9 991.7 5.8
23/07:17am 14.3 9.7 12.3 88 1.1 WSW 28 52 15 28 992.2 992.0 5.0
23/07:00am 14.0 11.0 12.7 92 0.7 WSW 20 32 11 17 992.5 992.3 4.2

Other formats

Comma delimited format used in spreadsheet applications
http://www.bom.gov.au/fwo/IDT60801/IDT60801.95981.axf

JavaScript Object Notation format (JSON) in row-major order
http://www.bom.gov.au/fwo/IDT60801/IDT60801.95981.json

Data quality

Most of these data are generated automatically and are frequently updated. Quality checks on data are not normally performed. It is possible for incorrect values to appear. Refer to information at About Latest Weather Observations and please check the disclaimer before using these data.